Drayton, North Dakota
Current Conditions -  °F | °C
As of 6:15 PM on Friday 28 Nov 2014 (Local Time) from KGAF Reporting Station
Overcast Overcast  
Wind Chill: -1°   Ceiling: 2400
Heat Index: 14°   Visibility: 10mi
Dew Point: 10°   Wind: 14mph
Humidity: 86%   Direction: 140°SE
Pressure: 29.74"   Gusts: NA
Location:  48.57°N, 97.18°W
Report Text: KGAF 290015Z AUTO 14012KT 10SM OVC024 M10/M12 A2974 RMK AO2
Loading
Personal Weather Stations






























Interactive Weather Map New forecast layout! Learn more

10-Day Weather Forecast

Advertisements
Track Severe Weather on mobile